sensor_id;sensor_type;location;lat;lon;timestamp;temperature;humidity
17007;DHT22;8620;51.168;4.154;2022-12-18T07:35:39;-4.00;99.90
17007;DHT22;8620;51.168;4.154;2022-12-18T07:38:05;-3.90;99.90
17007;DHT22;8620;51.168;4.154;2022-12-18T07:40:31;-3.90;99.90
17007;DHT22;8620;51.168;4.154;2022-12-18T07:42:57;-3.80;99.90
17007;DHT22;8620;51.168;4.154;2022-12-18T07:45:23;-3.90;99.90
17007;DHT22;8620;51.168;4.154;2022-12-18T07:47:49;-3.80;99.90
17007;DHT22;8620;51.168;4.154;2022-12-18T07:50:17;-3.90;99.90
17007;DHT22;8620;51.168;4.154;2022-12-18T07:52:43;-4.10;99.90
17007;DHT22;8620;51.168;4.154;2022-12-18T07:55:11;-4.10;99.90
17007;DHT22;8620;51.168;4.154;2022-12-18T07:57:46;-4.00;99.90
17007;DHT22;8620;51.168;4.154;2022-12-18T08:00:28;-4.00;99.90
17007;DHT22;8620;51.168;4.154;2022-12-18T08:02:57;-4.00;99.90
17007;DHT22;8620;51.168;4.154;2022-12-18T08:05:24;-3.90;99.90
17007;DHT22;8620;51.168;4.154;2022-12-18T08:07:54;-3.80;99.90
17007;DHT22;8620;51.168;4.154;2022-12-18T08:10:21;-3.80;99.90
17007;DHT22;8620;51.168;4.154;2022-12-18T08:12:51;-3.80;99.90
17007;DHT22;8620;51.168;4.154;2022-12-18T08:15:17;-3.70;99.90
17007;DHT22;8620;51.168;4.154;2022-12-18T08:17:46;-3.70;99.90
17007;DHT22;8620;51.168;4.154;2022-12-18T08:20:15;-3.70;99.90
17007;DHT22;8620;51.168;4.154;2022-12-18T08:22:45;-3.40;99.90
17007;DHT22;8620;51.168;4.154;2022-12-18T08:25:13;-3.40;99.90
17007;DHT22;8620;51.168;4.154;2022-12-18T08:27:39;-3.40;99.90
17007;DHT22;8620;51.168;4.154;2022-12-18T08:30:09;-3.50;99.90
17007;DHT22;8620;51.168;4.154;2022-12-18T08:32:38;-3.40;99.90
17007;DHT22;8620;51.168;4.154;2022-12-18T08:35:08;-3.50;99.90
17007;DHT22;8620;51.168;4.154;2022-12-18T08:37:35;-3.30;99.90
17007;DHT22;8620;51.168;4.154;2022-12-18T08:40:01;-3.30;99.90
17007;DHT22;8620;51.168;4.154;2022-12-18T08:42:27;-3.20;99.90
17007;DHT22;8620;51.168;4.154;2022-12-18T08:45:20;-3.20;99.90
17007;DHT22;8620;51.168;4.154;2022-12-18T08:47:50;-3.10;99.90
17007;DHT22;8620;51.168;4.154;2022-12-18T08:50:16;-2.90;99.90
17007;DHT22;8620;51.168;4.154;2022-12-18T08:52:42;-3.00;99.90
17007;DHT22;8620;51.168;4.154;2022-12-18T08:55:08;-3.00;99.90
17007;DHT22;8620;51.168;4.154;2022-12-18T08:57:36;-3.00;99.90
17007;DHT22;8620;51.168;4.154;2022-12-18T09:00:05;-3.00;99.90
17007;DHT22;8620;51.168;4.154;2022-12-18T09:02:32;-3.00;99.90
17007;DHT22;8620;51.168;4.154;2022-12-18T09:04:58;-2.90;99.90
17007;DHT22;8620;51.168;4.154;2022-12-18T09:07:26;-2.80;99.90
17007;DHT22;8620;51.168;4.154;2022-12-18T09:09:52;-2.70;99.90
17007;DHT22;8620;51.168;4.154;2022-12-18T09:12:18;-2.50;99.90
17007;DHT22;8620;51.168;4.154;2022-12-18T09:14:47;-2.60;99.90
17007;DHT22;8620;51.168;4.154;2022-12-18T09:17:15;-2.50;99.90
17007;DHT22;8620;51.168;4.154;2022-12-18T09:19:41;-2.70;99.90
17007;DHT22;8620;51.168;4.154;2022-12-18T09:22:07;-2.50;99.90
17007;DHT22;8620;51.168;4.154;2022-12-18T09:24:35;-2.50;99.90
17007;DHT22;8620;51.168;4.154;2022-12-18T09:27:01;-2.50;99.90
17007;DHT22;8620;51.168;4.154;2022-12-18T09:29:27;-2.60;99.90
17007;DHT22;8620;51.168;4.154;2022-12-18T09:31:53;-2.70;99.90
17007;DHT22;8620;51.168;4.154;2022-12-18T09:34:19;-2.50;99.90
17007;DHT22;8620;51.168;4.154;2022-12-18T09:36:48;-2.40;99.90
17007;DHT22;8620;51.168;4.154;2022-12-18T09:39:22;-2.40;99.90
17007;DHT22;8620;51.168;4.154;2022-12-18T09:42:32;-2.40;99.90
17007;DHT22;8620;51.168;4.154;2022-12-18T09:45:12;-2.30;99.90
17007;DHT22;8620;51.168;4.154;2022-12-18T09:47:43;-2.00;99.90
17007;DHT22;8620;51.168;4.154;2022-12-18T09:50:35;-2.10;99.90
17007;DHT22;8620;51.168;4.154;2022-12-18T09:53:30;-2.10;99.90
17007;DHT22;8620;51.168;4.154;2022-12-18T09:56:03;-2.20;99.90
17007;DHT22;8620;51.168;4.154;2022-12-18T09:58:55;-2.10;99.90
17007;DHT22;8620;51.168;4.154;2022-12-18T10:01:27;-2.00;99.90
17007;DHT22;8620;51.168;4.154;2022-12-18T10:03:55;-2.00;99.90
17007;DHT22;8620;51.168;4.154;2022-12-18T10:09:33;-2.10;99.90
17007;DHT22;8620;51.168;4.154;2022-12-18T10:12:32;-2.00;99.90
17007;DHT22;8620;51.168;4.154;2022-12-18T10:15:30;-2.00;99.90
17007;DHT22;8620;51.168;4.154;2022-12-18T10:20:56;-1.90;99.90
17007;DHT22;8620;51.168;4.154;2022-12-18T10:33:45;-2.10;99.90
17007;DHT22;8620;51.168;4.154;2022-12-18T10:36:34;-2.00;99.90
17007;DHT22;8620;51.168;4.154;2022-12-18T10:39:24;-1.70;99.90
17007;DHT22;8620;51.168;4.154;2022-12-18T10:42:15;-1.50;99.90
17007;DHT22;8620;51.168;4.154;2022-12-18T10:45:01;-1.20;99.90
17007;DHT22;8620;51.168;4.154;2022-12-18T10:47:50;-1.10;99.90
17007;DHT22;8620;51.168;4.154;2022-12-18T10:50:36;-1.00;99.90
17007;DHT22;8620;51.168;4.154;2022-12-18T10:53:05;-0.80;99.90
17007;DHT22;8620;51.168;4.154;2022-12-18T10:55:35;-1.00;99.90
17007;DHT22;8620;51.168;4.154;2022-12-18T10:58:24;-0.90;99.90
17007;DHT22;8620;51.168;4.154;2022-12-18T11:06:23;-0.60;99.90
17007;DHT22;8620;51.168;4.154;2022-12-18T11:09:22;-0.70;99.90
17007;DHT22;8620;51.168;4.154;2022-12-18T11:11:57;-0.90;99.90
17007;DHT22;8620;51.168;4.154;2022-12-18T11:17:20;-0.70;99.90
17007;DHT22;8620;51.168;4.154;2022-12-18T11:23:25;-0.80;99.90
17007;DHT22;8620;51.168;4.154;2022-12-18T11:26:24;-0.70;99.90
17007;DHT22;8620;51.168;4.154;2022-12-18T11:29:36;-0.80;99.90
17007;DHT22;8620;51.168;4.154;2022-12-18T11:32:35;-0.80;99.90
17007;DHT22;8620;51.168;4.154;2022-12-18T11:35:33;-0.70;99.90
17007;DHT22;8620;51.168;4.154;2022-12-18T11:38:39;-0.60;99.90
17007;DHT22;8620;51.168;4.154;2022-12-18T11:48:23;-0.50;99.90
17007;DHT22;8620;51.168;4.154;2022-12-18T11:50:57;-0.60;99.90
17007;DHT22;8620;51.168;4.154;2022-12-18T11:53:45;-0.50;99.90
17007;DHT22;8620;51.168;4.154;2022-12-18T11:59:08;-0.40;99.90
17007;DHT22;8620;51.168;4.154;2022-12-18T12:04:54;-0.20;99.90
17007;DHT22;8620;51.168;4.154;2022-12-18T12:24:51;-0.10;99.90
17007;DHT22;8620;51.168;4.154;2022-12-18T12:30:35;-0.10;99.90
17007;DHT22;8620;51.168;4.154;2022-12-18T12:33:39;0.10;99.90
17007;DHT22;8620;51.168;4.154;2022-12-18T12:39:42;0.10;99.90
17007;DHT22;8620;51.168;4.154;2022-12-18T12:42:42;0.00;99.90
17007;DHT22;8620;51.168;4.154;2022-12-18T12:45:49;0.00;99.90
17007;DHT22;8620;51.168;4.154;2022-12-18T12:48:27;0.10;99.90
17007;DHT22;8620;51.168;4.154;2022-12-18T12:51:26;0.10;99.90
17007;DHT22;8620;51.168;4.154;2022-12-18T12:54:57;0.00;99.90
17007;DHT22;8620;51.168;4.154;2022-12-18T13:00:35;0.10;99.90
17007;DHT22;8620;51.168;4.154;2022-12-18T13:03:23;0.20;99.90
17007;DHT22;8620;51.168;4.154;2022-12-18T13:06:08;0.30;99.90
17007;DHT22;8620;51.168;4.154;2022-12-18T13:09:00;0.10;99.90
17007;DHT22;8620;51.168;4.154;2022-12-18T13:20:08;0.30;99.90
17007;DHT22;8620;51.168;4.154;2022-12-18T13:28:54;0.40;99.90
17007;DHT22;8620;51.168;4.154;2022-12-18T13:34:26;0.40;99.90
17007;DHT22;8620;51.168;4.154;2022-12-18T13:37:35;0.40;99.90
17007;DHT22;8620;51.168;4.154;2022-12-18T13:39:59;0.20;99.90
17007;DHT22;8620;51.168;4.154;2022-12-18T13:42:40;0.30;99.90
17007;DHT22;8620;51.168;4.154;2022-12-18T13:48:33;0.30;99.90
17007;DHT22;8620;51.168;4.154;2022-12-18T13:51:09;0.30;99.90
17007;DHT22;8620;51.168;4.154;2022-12-18T13:53:43;0.20;99.90
17007;DHT22;8620;51.168;4.154;2022-12-18T13:56:34;0.40;99.90
17007;DHT22;8620;51.168;4.154;2022-12-18T14:01:55;0.50;99.90
17007;DHT22;8620;51.168;4.154;2022-12-18T14:04:34;0.50;99.90
17007;DHT22;8620;51.168;4.154;2022-12-18T14:07:30;0.50;99.90
17007;DHT22;8620;51.168;4.154;2022-12-18T14:10:03;0.40;99.90
17007;DHT22;8620;51.168;4.154;2022-12-18T14:12:33;0.40;99.90
17007;DHT22;8620;51.168;4.154;2022-12-18T14:15:38;0.50;99.90
17007;DHT22;8620;51.168;4.154;2022-12-18T14:18:24;0.50;99.90
17007;DHT22;8620;51.168;4.154;2022-12-18T14:20:54;0.60;99.90
17007;DHT22;8620;51.168;4.154;2022-12-18T14:23:41;0.50;99.90
17007;DHT22;8620;51.168;4.154;2022-12-18T14:26:27;0.50;99.90
17007;DHT22;8620;51.168;4.154;2022-12-18T14:35:13;0.50;99.90
17007;DHT22;8620;51.168;4.154;2022-12-18T14:37:39;0.40;99.90
17007;DHT22;8620;51.168;4.154;2022-12-18T14:40:15;0.30;99.90
17007;DHT22;8620;51.168;4.154;2022-12-18T14:42:46;0.50;99.90
17007;DHT22;8620;51.168;4.154;2022-12-18T14:45:38;0.40;99.90
17007;DHT22;8620;51.168;4.154;2022-12-18T14:51:00;0.40;99.90
17007;DHT22;8620;51.168;4.154;2022-12-18T14:56:38;0.50;99.90
17007;DHT22;8620;51.168;4.154;2022-12-18T14:59:33;0.50;99.90
17007;DHT22;8620;51.168;4.154;2022-12-18T15:05:17;0.50;99.90
17007;DHT22;8620;51.168;4.154;2022-12-18T15:07:59;0.70;99.90
17007;DHT22;8620;51.168;4.154;2022-12-18T15:10:34;0.60;99.90
17007;DHT22;8620;51.168;4.154;2022-12-18T15:13:21;0.70;99.90
17007;DHT22;8620;51.168;4.154;2022-12-18T15:15:57;0.80;99.90
17007;DHT22;8620;51.168;4.154;2022-12-18T15:18:40;0.60;99.90
17007;DHT22;8620;51.168;4.154;2022-12-18T15:21:39;0.60;99.90
17007;DHT22;8620;51.168;4.154;2022-12-18T15:24:42;0.60;99.90
17007;DHT22;8620;51.168;4.154;2022-12-18T15:27:32;0.80;99.90
17007;DHT22;8620;51.168;4.154;2022-12-18T15:30:35;0.70;99.90
17007;DHT22;8620;51.168;4.154;2022-12-18T15:33:39;0.80;99.90
17007;DHT22;8620;51.168;4.154;2022-12-18T15:36:30;0.80;99.90
17007;DHT22;8620;51.168;4.154;2022-12-18T15:39:24;0.90;99.90
17007;DHT22;8620;51.168;4.154;2022-12-18T15:41:51;1.00;99.90
17007;DHT22;8620;51.168;4.154;2022-12-18T15:44:52;1.00;99.90
17007;DHT22;8620;51.168;4.154;2022-12-18T15:47:32;1.00;99.90
17007;DHT22;8620;51.168;4.154;2022-12-18T15:50:38;1.00;99.90
17007;DHT22;8620;51.168;4.154;2022-12-18T15:56:20;0.90;99.90
17007;DHT22;8620;51.168;4.154;2022-12-18T15:59:23;1.10;99.90
17007;DHT22;8620;51.168;4.154;2022-12-18T16:02:13;1.00;99.90
17007;DHT22;8620;51.168;4.154;2022-12-18T16:05:17;1.00;99.90
17007;DHT22;8620;51.168;4.154;2022-12-18T16:07:57;1.00;99.90
17007;DHT22;8620;51.168;4.154;2022-12-18T16:10:41;1.00;99.90
17007;DHT22;8620;51.168;4.154;2022-12-18T16:13:44;1.10;99.90
17007;DHT22;8620;51.168;4.154;2022-12-18T16:16:18;1.20;99.90
17007;DHT22;8620;51.168;4.154;2022-12-18T16:19:11;1.10;99.90
17007;DHT22;8620;51.168;4.154;2022-12-18T16:22:18;1.20;99.90
17007;DHT22;8620;51.168;4.154;2022-12-18T16:24:56;1.20;99.90
17007;DHT22;8620;51.168;4.154;2022-12-18T16:27:46;1.20;99.90
17007;DHT22;8620;51.168;4.154;2022-12-18T16:30:20;1.20;99.90
17007;DHT22;8620;51.168;4.154;2022-12-18T16:33:12;1.20;99.90
17007;DHT22;8620;51.168;4.154;2022-12-18T16:36:03;1.20;99.90
17007;DHT22;8620;51.168;4.154;2022-12-18T16:38:50;1.30;99.90
17007;DHT22;8620;51.168;4.154;2022-12-18T16:41:56;1.40;99.90
17007;DHT22;8620;51.168;4.154;2022-12-18T16:44:44;1.30;99.90
17007;DHT22;8620;51.168;4.154;2022-12-18T16:47:48;1.20;99.90
17007;DHT22;8620;51.168;4.154;2022-12-18T16:50:49;1.20;99.90
17007;DHT22;8620;51.168;4.154;2022-12-18T16:53:50;1.30;99.90
17007;DHT22;8620;51.168;4.154;2022-12-18T16:56:56;1.30;99.90
17007;DHT22;8620;51.168;4.154;2022-12-18T17:00:10;1.30;99.90
17007;DHT22;8620;51.168;4.154;2022-12-18T17:03:15;1.40;99.90
17007;DHT22;8620;51.168;4.154;2022-12-18T17:06:04;1.40;99.90
17007;DHT22;8620;51.168;4.154;2022-12-18T17:08:33;1.40;99.90
17007;DHT22;8620;51.168;4.154;2022-12-18T17:11:09;1.50;99.90
17007;DHT22;8620;51.168;4.154;2022-12-18T17:14:19;1.40;99.90
17007;DHT22;8620;51.168;4.154;2022-12-18T17:20:43;1.50;99.90
17007;DHT22;8620;51.168;4.154;2022-12-18T17:23:39;1.50;99.90
17007;DHT22;8620;51.168;4.154;2022-12-18T17:26:43;1.50;99.90
17007;DHT22;8620;51.168;4.154;2022-12-18T17:29:52;1.40;99.90
17007;DHT22;8620;51.168;4.154;2022-12-18T17:32:41;1.30;99.90
17007;DHT22;8620;51.168;4.154;2022-12-18T17:35:32;1.30;99.90
17007;DHT22;8620;51.168;4.154;2022-12-18T17:38:24;1.30;99.90
17007;DHT22;8620;51.168;4.154;2022-12-18T17:44:46;1.50;99.90
17007;DHT22;8620;51.168;4.154;2022-12-18T17:47:17;1.40;99.90
17007;DHT22;8620;51.168;4.154;2022-12-18T17:50:09;1.40;99.90
17007;DHT22;8620;51.168;4.154;2022-12-18T17:52:56;1.30;99.90
17007;DHT22;8620;51.168;4.154;2022-12-18T17:55:55;1.20;99.90
17007;DHT22;8620;51.168;4.154;2022-12-18T17:58:53;1.20;99.90
17007;DHT22;8620;51.168;4.154;2022-12-18T18:01:27;1.20;99.90
17007;DHT22;8620;51.168;4.154;2022-12-18T18:03:53;1.20;99.90
17007;DHT22;8620;51.168;4.154;2022-12-18T18:06:25;1.20;99.90
17007;DHT22;8620;51.168;4.154;2022-12-18T18:08:52;1.10;99.90
17007;DHT22;8620;51.168;4.154;2022-12-18T18:11:20;1.20;99.90
17007;DHT22;8620;51.168;4.154;2022-12-18T18:14:35;1.10;99.90
17007;DHT22;8620;51.168;4.154;2022-12-18T18:17:01;1.20;99.90
17007;DHT22;8620;51.168;4.154;2022-12-18T18:19:27;1.20;99.90
17007;DHT22;8620;51.168;4.154;2022-12-18T18:21:53;1.10;99.90
17007;DHT22;8620;51.168;4.154;2022-12-18T18:24:37;1.10;99.90
17007;DHT22;8620;51.168;4.154;2022-12-18T18:27:04;1.10;99.90
17007;DHT22;8620;51.168;4.154;2022-12-18T18:29:30;1.10;99.90
17007;DHT22;8620;51.168;4.154;2022-12-18T18:31:56;1.10;99.90
17007;DHT22;8620;51.168;4.154;2022-12-18T18:34:27;1.10;99.90
17007;DHT22;8620;51.168;4.154;2022-12-18T18:36:55;1.20;99.90
17007;DHT22;8620;51.168;4.154;2022-12-18T18:39:23;1.20;99.90
17007;DHT22;8620;51.168;4.154;2022-12-18T18:41:50;1.20;99.90
17007;DHT22;8620;51.168;4.154;2022-12-18T18:44:17;1.10;99.90
17007;DHT22;8620;51.168;4.154;2022-12-18T18:47:02;1.10;99.90
17007;DHT22;8620;51.168;4.154;2022-12-18T18:49:56;1.10;99.90
17007;DHT22;8620;51.168;4.154;2022-12-18T18:52:26;1.10;99.90
17007;DHT22;8620;51.168;4.154;2022-12-18T18:55:25;1.10;99.90
17007;DHT22;8620;51.168;4.154;2022-12-18T18:57:54;1.20;99.90
17007;DHT22;8620;51.168;4.154;2022-12-18T19:00:25;1.10;99.90
17007;DHT22;8620;51.168;4.154;2022-12-18T19:02:54;1.10;99.90
17007;DHT22;8620;51.168;4.154;2022-12-18T19:05:19;1.20;99.90
17007;DHT22;8620;51.168;4.154;2022-12-18T19:07:51;1.20;99.90
17007;DHT22;8620;51.168;4.154;2022-12-18T19:10:23;1.10;99.90
17007;DHT22;8620;51.168;4.154;2022-12-18T19:13:00;1.10;99.90
17007;DHT22;8620;51.168;4.154;2022-12-18T19:15:45;1.10;99.90
17007;DHT22;8620;51.168;4.154;2022-12-18T19:18:20;1.20;99.90
17007;DHT22;8620;51.168;4.154;2022-12-18T19:20:57;1.20;99.90
17007;DHT22;8620;51.168;4.154;2022-12-18T19:23:46;1.20;99.90
17007;DHT22;8620;51.168;4.154;2022-12-18T19:26:42;1.10;99.90
17007;DHT22;8620;51.168;4.154;2022-12-18T19:29:48;1.10;99.90
17007;DHT22;8620;51.168;4.154;2022-12-18T19:32:44;1.20;99.90
17007;DHT22;8620;51.168;4.154;2022-12-18T19:35:47;1.30;99.90
17007;DHT22;8620;51.168;4.154;2022-12-18T19:38:36;1.20;99.90
17007;DHT22;8620;51.168;4.154;2022-12-18T19:41:21;1.30;99.90
17007;DHT22;8620;51.168;4.154;2022-12-18T19:43:57;1.30;99.90
17007;DHT22;8620;51.168;4.154;2022-12-18T19:46:37;1.40;99.90
17007;DHT22;8620;51.168;4.154;2022-12-18T19:49:22;1.50;99.90
17007;DHT22;8620;51.168;4.154;2022-12-18T19:52:17;1.40;99.90
17007;DHT22;8620;51.168;4.154;2022-12-18T19:55:14;1.50;99.90
17007;DHT22;8620;51.168;4.154;2022-12-18T19:58:02;1.40;99.90
17007;DHT22;8620;51.168;4.154;2022-12-18T20:00:59;1.40;99.90
17007;DHT22;8620;51.168;4.154;2022-12-18T20:03:47;1.40;99.90
17007;DHT22;8620;51.168;4.154;2022-12-18T20:09:04;1.40;99.90
17007;DHT22;8620;51.168;4.154;2022-12-18T20:11:36;1.40;99.90
17007;DHT22;8620;51.168;4.154;2022-12-18T20:14:14;1.30;99.90
17007;DHT22;8620;51.168;4.154;2022-12-18T20:16:55;1.50;99.90
17007;DHT22;8620;51.168;4.154;2022-12-18T20:22:36;1.50;99.90
17007;DHT22;8620;51.168;4.154;2022-12-18T20:25:31;1.50;99.90
17007;DHT22;8620;51.168;4.154;2022-12-18T20:28:14;1.40;99.90
17007;DHT22;8620;51.168;4.154;2022-12-18T20:30:56;1.40;99.90
17007;DHT22;8620;51.168;4.154;2022-12-18T20:33:54;1.50;99.90
17007;DHT22;8620;51.168;4.154;2022-12-18T20:37:00;1.50;99.90
17007;DHT22;8620;51.168;4.154;2022-12-18T20:40:06;1.50;99.90
17007;DHT22;8620;51.168;4.154;2022-12-18T20:43:02;1.50;99.90
17007;DHT22;8620;51.168;4.154;2022-12-18T20:46:13;1.60;99.90
17007;DHT22;8620;51.168;4.154;2022-12-18T20:49:16;1.60;99.90
17007;DHT22;8620;51.168;4.154;2022-12-18T20:51:59;1.70;99.90
17007;DHT22;8620;51.168;4.154;2022-12-18T20:55:05;1.70;99.90
17007;DHT22;8620;51.168;4.154;2022-12-18T20:58:18;1.60;99.90
17007;DHT22;8620;51.168;4.154;2022-12-18T21:01:43;1.70;99.90
17007;DHT22;8620;51.168;4.154;2022-12-18T21:04:31;1.80;99.90
17007;DHT22;8620;51.168;4.154;2022-12-18T21:07:42;1.80;99.90
17007;DHT22;8620;51.168;4.154;2022-12-18T21:10:51;1.80;99.90
17007;DHT22;8620;51.168;4.154;2022-12-18T21:13:55;1.80;99.90
17007;DHT22;8620;51.168;4.154;2022-12-18T21:17:01;1.80;99.90
17007;DHT22;8620;51.168;4.154;2022-12-18T21:20:11;1.80;99.90
17007;DHT22;8620;51.168;4.154;2022-12-18T21:29:20;2.00;99.90
17007;DHT22;8620;51.168;4.154;2022-12-18T21:32:22;2.00;99.90
17007;DHT22;8620;51.168;4.154;2022-12-18T21:38:37;2.10;99.90
17007;DHT22;8620;51.168;4.154;2022-12-18T21:41:58;2.10;99.90
17007;DHT22;8620;51.168;4.154;2022-12-18T21:45:38;2.30;99.90
17007;DHT22;8620;51.168;4.154;2022-12-18T21:48:46;2.30;99.90
17007;DHT22;8620;51.168;4.154;2022-12-18T21:52:08;2.40;99.90
17007;DHT22;8620;51.168;4.154;2022-12-18T21:55:31;2.60;99.90
17007;DHT22;8620;51.168;4.154;2022-12-18T21:58:25;2.70;99.90
17007;DHT22;8620;51.168;4.154;2022-12-18T22:01:21;2.70;99.90
17007;DHT22;8620;51.168;4.154;2022-12-18T22:04:25;2.70;99.90
17007;DHT22;8620;51.168;4.154;2022-12-18T22:07:27;2.80;99.90
17007;DHT22;8620;51.168;4.154;2022-12-18T22:13:32;2.80;99.90
17007;DHT22;8620;51.168;4.154;2022-12-18T22:16:17;2.90;99.90
17007;DHT22;8620;51.168;4.154;2022-12-18T22:18:43;2.90;99.90
17007;DHT22;8620;51.168;4.154;2022-12-18T22:33:29;3.00;99.90
17007;DHT22;8620;51.168;4.154;2022-12-18T22:36:04;3.00;99.90
17007;DHT22;8620;51.168;4.154;2022-12-18T22:38:33;3.10;99.90
17007;DHT22;8620;51.168;4.154;2022-12-18T22:41:08;3.10;99.90
17007;DHT22;8620;51.168;4.154;2022-12-18T22:43:38;3.40;99.90
17007;DHT22;8620;51.168;4.154;2022-12-18T22:46:11;3.40;99.90
17007;DHT22;8620;51.168;4.154;2022-12-18T22:48:47;3.30;99.90
17007;DHT22;8620;51.168;4.154;2022-12-18T22:51:19;3.30;99.90
17007;DHT22;8620;51.168;4.154;2022-12-18T22:53:48;3.40;99.90
17007;DHT22;8620;51.168;4.154;2022-12-18T22:56:17;3.50;99.90
17007;DHT22;8620;51.168;4.154;2022-12-18T22:58:51;3.60;99.90
